sensor_id;sensor_type;location;lat;lon;timestamp;pressure;altitude;pressure_sealevel;temperature;humidity
16613;BME280;8419;52.358;9.752;2023-03-16T00:01:56;101412.00;;;10.77;34.71
16613;BME280;8419;52.358;9.752;2023-03-16T00:04:42;101413.00;;;10.75;34.68
16613;BME280;8419;52.358;9.752;2023-03-16T00:07:31;101404.00;;;10.71;34.73
16613;BME280;8419;52.358;9.752;2023-03-16T00:10:18;101420.00;;;10.68;34.80
16613;BME280;8419;52.358;9.752;2023-03-16T00:13:03;101418.00;;;10.68;34.81
16613;BME280;8419;52.358;9.752;2023-03-16T00:15:53;101416.00;;;10.66;34.84
16613;BME280;8419;52.358;9.752;2023-03-16T00:18:38;101421.00;;;10.64;34.90
16613;BME280;8419;52.358;9.752;2023-03-16T00:21:25;101416.00;;;10.63;34.86
16613;BME280;8419;52.358;9.752;2023-03-16T00:24:11;101422.00;;;10.60;34.91
16613;BME280;8419;52.358;9.752;2023-03-16T00:26:57;101417.00;;;10.60;34.90
16613;BME280;8419;52.358;9.752;2023-03-16T00:29:44;101418.00;;;10.60;34.93
16613;BME280;8419;52.358;9.752;2023-03-16T00:32:32;101419.00;;;10.61;34.94
16613;BME280;8419;52.358;9.752;2023-03-16T00:35:19;101410.00;;;10.62;34.94
16613;BME280;8419;52.358;9.752;2023-03-16T00:38:05;101423.00;;;10.64;34.92
16613;BME280;8419;52.358;9.752;2023-03-16T00:40:50;101423.00;;;10.67;34.88
16613;BME280;8419;52.358;9.752;2023-03-16T00:43:37;101414.00;;;10.74;34.79
16613;BME280;8419;52.358;9.752;2023-03-16T00:46:24;101411.00;;;10.78;34.72
16613;BME280;8419;52.358;9.752;2023-03-16T00:49:12;101411.00;;;10.78;34.71
16613;BME280;8419;52.358;9.752;2023-03-16T00:51:58;101412.00;;;10.76;34.78
16613;BME280;8419;52.358;9.752;2023-03-16T00:54:47;101398.00;;;10.77;34.83
16613;BME280;8419;52.358;9.752;2023-03-16T00:57:33;101403.00;;;10.79;34.82
16613;BME280;8419;52.358;9.752;2023-03-16T01:00:20;101402.00;;;10.80;34.81
16613;BME280;8419;52.358;9.752;2023-03-16T01:03:06;101404.00;;;10.80;34.82
16613;BME280;8419;52.358;9.752;2023-03-16T01:05:52;101402.00;;;10.79;34.85
16613;BME280;8419;52.358;9.752;2023-03-16T01:08:38;101403.00;;;10.76;34.88
16613;BME280;8419;52.358;9.752;2023-03-16T01:11:24;101405.00;;;10.74;34.91
16613;BME280;8419;52.358;9.752;2023-03-16T01:14:10;101398.00;;;10.71;34.96
16613;BME280;8419;52.358;9.752;2023-03-16T01:16:55;101400.00;;;10.66;34.99
16613;BME280;8419;52.358;9.752;2023-03-16T01:19:42;101402.00;;;10.60;35.04
16613;BME280;8419;52.358;9.752;2023-03-16T01:22:28;101396.00;;;10.57;35.08
16613;BME280;8419;52.358;9.752;2023-03-16T01:25:14;101393.00;;;10.55;35.06
16613;BME280;8419;52.358;9.752;2023-03-16T01:28:00;101394.00;;;10.49;35.15
16613;BME280;8419;52.358;9.752;2023-03-16T01:30:46;101387.00;;;10.46;35.19
16613;BME280;8419;52.358;9.752;2023-03-16T01:33:32;101390.00;;;10.44;35.19
16613;BME280;8419;52.358;9.752;2023-03-16T01:36:18;101391.00;;;10.41;35.21
16613;BME280;8419;52.358;9.752;2023-03-16T01:39:05;101392.00;;;10.39;35.21
16613;BME280;8419;52.358;9.752;2023-03-16T01:41:50;101385.00;;;10.35;35.23
16613;BME280;8419;52.358;9.752;2023-03-16T01:44:54;101376.00;;;10.30;35.28
16613;BME280;8419;52.358;9.752;2023-03-16T01:47:40;101385.00;;;10.32;35.28
16613;BME280;8419;52.358;9.752;2023-03-16T01:50:26;101388.00;;;10.32;35.22
16613;BME280;8419;52.358;9.752;2023-03-16T01:53:12;101391.00;;;10.28;35.25
16613;BME280;8419;52.358;9.752;2023-03-16T01:55:57;101392.00;;;10.20;35.38
16613;BME280;8419;52.358;9.752;2023-03-16T01:58:45;101394.00;;;10.18;35.42
16613;BME280;8419;52.358;9.752;2023-03-16T02:01:33;101387.00;;;10.17;35.42
16613;BME280;8419;52.358;9.752;2023-03-16T02:04:28;101382.00;;;10.17;35.42
16613;BME280;8419;52.358;9.752;2023-03-16T02:07:18;101384.00;;;10.15;35.42
16613;BME280;8419;52.358;9.752;2023-03-16T02:10:07;101391.00;;;10.15;35.39
16613;BME280;8419;52.358;9.752;2023-03-16T02:12:56;101383.00;;;10.12;35.45
16613;BME280;8419;52.358;9.752;2023-03-16T02:15:42;101392.00;;;10.08;35.51
16613;BME280;8419;52.358;9.752;2023-03-16T02:18:28;101385.00;;;10.08;35.49
16613;BME280;8419;52.358;9.752;2023-03-16T02:21:18;101378.00;;;10.06;35.52
16613;BME280;8419;52.358;9.752;2023-03-16T02:24:11;101380.00;;;10.07;35.53
16613;BME280;8419;52.358;9.752;2023-03-16T02:26:57;101380.00;;;10.09;35.51
16613;BME280;8419;52.358;9.752;2023-03-16T02:29:57;101371.00;;;10.08;35.54
16613;BME280;8419;52.358;9.752;2023-03-16T02:32:48;101370.00;;;10.10;35.51
16613;BME280;8419;52.358;9.752;2023-03-16T02:35:36;101367.00;;;10.07;35.52
16613;BME280;8419;52.358;9.752;2023-03-16T02:38:22;101361.00;;;10.05;35.53
16613;BME280;8419;52.358;9.752;2023-03-16T02:41:11;101364.00;;;10.04;35.55
16613;BME280;8419;52.358;9.752;2023-03-16T02:44:02;101356.00;;;10.04;35.57
16613;BME280;8419;52.358;9.752;2023-03-16T02:46:49;101349.00;;;10.01;35.59
16613;BME280;8419;52.358;9.752;2023-03-16T02:49:38;101353.00;;;9.99;35.59
16613;BME280;8419;52.358;9.752;2023-03-16T02:52:25;101349.00;;;10.03;35.56
16613;BME280;8419;52.358;9.752;2023-03-16T02:55:11;101345.00;;;9.94;35.66
16613;BME280;8419;52.358;9.752;2023-03-16T02:57:57;101342.00;;;9.94;35.63
16613;BME280;8419;52.358;9.752;2023-03-16T03:00:42;101344.00;;;9.89;35.75
16613;BME280;8419;52.358;9.752;2023-03-16T03:03:29;101339.00;;;9.88;35.78
16613;BME280;8419;52.358;9.752;2023-03-16T03:06:18;101339.00;;;9.91;35.78
16613;BME280;8419;52.358;9.752;2023-03-16T03:09:04;101332.00;;;9.88;35.77
16613;BME280;8419;52.358;9.752;2023-03-16T03:11:49;101338.00;;;9.89;35.76
16613;BME280;8419;52.358;9.752;2023-03-16T03:14:37;101333.00;;;9.89;35.75
16613;BME280;8419;52.358;9.752;2023-03-16T03:17:23;101329.00;;;9.87;35.80
16613;BME280;8419;52.358;9.752;2023-03-16T03:20:14;101335.00;;;9.90;35.78
16613;BME280;8419;52.358;9.752;2023-03-16T03:23:01;101327.00;;;9.91;35.74
16613;BME280;8419;52.358;9.752;2023-03-16T03:25:46;101322.00;;;9.89;35.75
16613;BME280;8419;52.358;9.752;2023-03-16T03:28:32;101333.00;;;9.86;35.82
16613;BME280;8419;52.358;9.752;2023-03-16T03:31:20;101333.00;;;9.87;35.79
16613;BME280;8419;52.358;9.752;2023-03-16T03:34:06;101329.00;;;9.81;35.86
16613;BME280;8419;52.358;9.752;2023-03-16T03:36:51;101325.00;;;9.78;35.88
16613;BME280;8419;52.358;9.752;2023-03-16T03:39:38;101331.00;;;9.75;35.90
16613;BME280;8419;52.358;9.752;2023-03-16T03:42:24;101339.00;;;9.74;35.91
16613;BME280;8419;52.358;9.752;2023-03-16T03:45:11;101339.00;;;9.70;35.98
16613;BME280;8419;52.358;9.752;2023-03-16T03:47:57;101334.00;;;9.69;35.99
16613;BME280;8419;52.358;9.752;2023-03-16T03:50:42;101333.00;;;9.67;36.01
16613;BME280;8419;52.358;9.752;2023-03-16T03:53:28;101331.00;;;9.72;35.95
16613;BME280;8419;52.358;9.752;2023-03-16T03:56:15;101330.00;;;9.71;35.95
16613;BME280;8419;52.358;9.752;2023-03-16T03:59:01;101328.00;;;9.67;36.00
16613;BME280;8419;52.358;9.752;2023-03-16T04:01:47;101332.00;;;9.70;35.97
16613;BME280;8419;52.358;9.752;2023-03-16T04:04:33;101327.00;;;9.73;35.94
16613;BME280;8419;52.358;9.752;2023-03-16T04:07:18;101335.00;;;9.71;35.99
16613;BME280;8419;52.358;9.752;2023-03-16T04:10:06;101329.00;;;9.75;35.93
16613;BME280;8419;52.358;9.752;2023-03-16T04:12:52;101331.00;;;9.72;35.94
16613;BME280;8419;52.358;9.752;2023-03-16T04:15:37;101343.00;;;9.73;35.93
16613;BME280;8419;52.358;9.752;2023-03-16T04:18:23;101337.00;;;9.75;35.92
16613;BME280;8419;52.358;9.752;2023-03-16T04:21:13;101327.00;;;9.76;35.90
16613;BME280;8419;52.358;9.752;2023-03-16T04:23:59;101331.00;;;9.80;35.89
16613;BME280;8419;52.358;9.752;2023-03-16T04:26:48;101333.00;;;9.81;35.85
16613;BME280;8419;52.358;9.752;2023-03-16T04:29:33;101330.00;;;9.83;35.83
16613;BME280;8419;52.358;9.752;2023-03-16T04:32:19;101319.00;;;9.80;35.89
16613;BME280;8419;52.358;9.752;2023-03-16T04:35:06;101322.00;;;9.85;35.77
16613;BME280;8419;52.358;9.752;2023-03-16T04:37:52;101315.00;;;9.85;35.78
16613;BME280;8419;52.358;9.752;2023-03-16T04:40:38;101325.00;;;9.87;35.72
16613;BME280;8419;52.358;9.752;2023-03-16T04:43:23;101316.00;;;9.87;35.69
16613;BME280;8419;52.358;9.752;2023-03-16T04:46:09;101321.00;;;9.86;35.72
16613;BME280;8419;52.358;9.752;2023-03-16T04:48:56;101314.00;;;9.89;35.69
16613;BME280;8419;52.358;9.752;2023-03-16T04:51:42;101324.00;;;9.87;35.71
16613;BME280;8419;52.358;9.752;2023-03-16T04:54:29;101324.00;;;9.93;35.62
16613;BME280;8419;52.358;9.752;2023-03-16T04:57:14;101324.00;;;9.90;35.64
16613;BME280;8419;52.358;9.752;2023-03-16T05:00:04;101322.00;;;9.92;35.60
16613;BME280;8419;52.358;9.752;2023-03-16T05:02:55;101323.00;;;9.92;35.60
16613;BME280;8419;52.358;9.752;2023-03-16T05:05:40;101327.00;;;9.94;35.59
16613;BME280;8419;52.358;9.752;2023-03-16T05:08:26;101336.00;;;9.93;35.61
16613;BME280;8419;52.358;9.752;2023-03-16T05:11:11;101329.00;;;9.97;35.58
16613;BME280;8419;52.358;9.752;2023-03-16T05:13:57;101335.00;;;9.99;35.56
16613;BME280;8419;52.358;9.752;2023-03-16T05:16:42;101331.00;;;10.03;35.48
16613;BME280;8419;52.358;9.752;2023-03-16T05:19:27;101335.00;;;10.02;35.52
16613;BME280;8419;52.358;9.752;2023-03-16T05:22:14;101330.00;;;10.03;35.55
16613;BME280;8419;52.358;9.752;2023-03-16T05:24:59;101327.00;;;10.16;35.40
16613;BME280;8419;52.358;9.752;2023-03-16T05:27:49;101329.00;;;10.20;35.41
16613;BME280;8419;52.358;9.752;2023-03-16T05:30:36;101326.00;;;10.27;35.38
16613;BME280;8419;52.358;9.752;2023-03-16T05:33:31;101326.00;;;10.33;35.32
16613;BME280;8419;52.358;9.752;2023-03-16T05:36:16;101329.00;;;10.42;35.27
16613;BME280;8419;52.358;9.752;2023-03-16T05:39:02;101317.00;;;10.48;35.20
16613;BME280;8419;52.358;9.752;2023-03-16T05:41:47;101313.00;;;10.52;35.19
16613;BME280;8419;52.358;9.752;2023-03-16T05:44:33;101309.00;;;10.58;35.07
16613;BME280;8419;52.358;9.752;2023-03-16T05:47:18;101311.00;;;10.59;35.06
16613;BME280;8419;52.358;9.752;2023-03-16T05:50:08;101317.00;;;10.58;35.09
16613;BME280;8419;52.358;9.752;2023-03-16T05:52:54;101311.00;;;10.60;35.12
16613;BME280;8419;52.358;9.752;2023-03-16T05:55:40;101316.00;;;10.63;35.11
16613;BME280;8419;52.358;9.752;2023-03-16T05:58:25;101314.00;;;10.74;35.00
16613;BME280;8419;52.358;9.752;2023-03-16T06:01:10;101301.00;;;10.79;34.98
16613;BME280;8419;52.358;9.752;2023-03-16T06:03:57;101297.00;;;10.83;35.00
16613;BME280;8419;52.358;9.752;2023-03-16T06:06:42;101294.00;;;10.96;34.89
16613;BME280;8419;52.358;9.752;2023-03-16T06:09:27;101287.00;;;11.17;34.64
16613;BME280;8419;52.358;9.752;2023-03-16T06:12:13;101297.00;;;11.41;34.36
16613;BME280;8419;52.358;9.752;2023-03-16T06:14:58;101300.00;;;11.56;34.22
16613;BME280;8419;52.358;9.752;2023-03-16T06:17:44;101292.00;;;11.64;34.17
16613;BME280;8419;52.358;9.752;2023-03-16T06:20:32;101298.00;;;11.75;34.05
16613;BME280;8419;52.358;9.752;2023-03-16T06:23:17;101295.00;;;11.79;34.04
16613;BME280;8419;52.358;9.752;2023-03-16T06:26:06;101299.00;;;11.85;34.02
16613;BME280;8419;52.358;9.752;2023-03-16T06:28:52;101297.00;;;11.90;34.01
16613;BME280;8419;52.358;9.752;2023-03-16T06:31:45;101305.00;;;11.93;34.03
16613;BME280;8419;52.358;9.752;2023-03-16T06:34:35;101304.00;;;12.05;33.92
16613;BME280;8419;52.358;9.752;2023-03-16T06:37:21;101313.00;;;11.92;34.14
16613;BME280;8419;52.358;9.752;2023-03-16T06:40:12;101302.00;;;12.07;33.97
16613;BME280;8419;52.358;9.752;2023-03-16T06:42:58;101305.00;;;11.96;34.17
16613;BME280;8419;52.358;9.752;2023-03-16T06:45:43;101309.00;;;11.85;34.38
16613;BME280;8419;52.358;9.752;2023-03-16T06:48:29;101310.00;;;11.87;34.41
16613;BME280;8419;52.358;9.752;2023-03-16T06:51:15;101314.00;;;11.92;34.38
16613;BME280;8419;52.358;9.752;2023-03-16T06:54:00;101321.00;;;11.98;34.33
16613;BME280;8419;52.358;9.752;2023-03-16T06:56:46;101313.00;;;12.10;34.22
16613;BME280;8419;52.358;9.752;2023-03-16T06:59:31;101315.00;;;12.18;34.12
16613;BME280;8419;52.358;9.752;2023-03-16T07:02:16;101323.00;;;12.23;34.12
16613;BME280;8419;52.358;9.752;2023-03-16T07:05:05;101329.00;;;12.31;34.08
16613;BME280;8419;52.358;9.752;2023-03-16T07:07:50;101330.00;;;12.44;33.95
16613;BME280;8419;52.358;9.752;2023-03-16T07:10:35;101331.00;;;12.73;33.57
16613;BME280;8419;52.358;9.752;2023-03-16T07:13:21;101335.00;;;12.67;33.69
16613;BME280;8419;52.358;9.752;2023-03-16T07:16:09;101336.00;;;12.73;33.71
16613;BME280;8419;52.358;9.752;2023-03-16T07:18:54;101341.00;;;12.85;33.63
16613;BME280;8419;52.358;9.752;2023-03-16T07:21:40;101340.00;;;12.94;33.59
16613;BME280;8419;52.358;9.752;2023-03-16T07:24:26;101343.00;;;13.07;33.51
16613;BME280;8419;52.358;9.752;2023-03-16T07:27:11;101345.00;;;13.20;33.36
16613;BME280;8419;52.358;9.752;2023-03-16T07:29:56;101338.00;;;13.32;33.28
16613;BME280;8419;52.358;9.752;2023-03-16T07:32:42;101344.00;;;13.46;33.19
16613;BME280;8419;52.358;9.752;2023-03-16T07:35:27;101346.00;;;13.58;33.09
16613;BME280;8419;52.358;9.752;2023-03-16T07:38:13;101345.00;;;13.70;33.00
16613;BME280;8419;52.358;9.752;2023-03-16T07:41:00;101356.00;;;13.80;32.94
16613;BME280;8419;52.358;9.752;2023-03-16T07:43:46;101360.00;;;13.95;32.84
16613;BME280;8419;52.358;9.752;2023-03-16T07:46:32;101361.00;;;14.20;32.62
16613;BME280;8419;52.358;9.752;2023-03-16T07:49:17;101357.00;;;14.45;32.39
16613;BME280;8419;52.358;9.752;2023-03-16T07:52:04;101354.00;;;14.67;32.20
16613;BME280;8419;52.358;9.752;2023-03-16T07:54:51;101359.00;;;14.79;32.06
16613;BME280;8419;52.358;9.752;2023-03-16T07:57:37;101366.00;;;14.80;32.08
16613;BME280;8419;52.358;9.752;2023-03-16T08:00:24;101362.00;;;14.84;32.02
16613;BME280;8419;52.358;9.752;2023-03-16T08:03:09;101355.00;;;14.83;31.88
16613;BME280;8419;52.358;9.752;2023-03-16T08:05:55;101358.00;;;14.82;31.83
16613;BME280;8419;52.358;9.752;2023-03-16T08:08:40;101351.00;;;14.87;31.65
16613;BME280;8419;52.358;9.752;2023-03-16T08:11:27;101356.00;;;14.88;31.60
16613;BME280;8419;52.358;9.752;2023-03-16T08:14:12;101363.00;;;14.94;31.49
16613;BME280;8419;52.358;9.752;2023-03-16T08:16:58;101354.00;;;14.99;31.45
16613;BME280;8419;52.358;9.752;2023-03-16T08:19:43;101359.00;;;14.99;31.33
16613;BME280;8419;52.358;9.752;2023-03-16T08:22:31;101353.00;;;15.10;31.15
16613;BME280;8419;52.358;9.752;2023-03-16T08:25:21;101355.00;;;15.08;31.18
16613;BME280;8419;52.358;9.752;2023-03-16T08:28:09;101364.00;;;15.07;31.11
16613;BME280;8419;52.358;9.752;2023-03-16T08:30:56;101359.00;;;15.04;31.10
16613;BME280;8419;52.358;9.752;2023-03-16T08:33:44;101356.00;;;15.06;31.08
16613;BME280;8419;52.358;9.752;2023-03-16T08:36:30;101359.00;;;15.26;30.83
16613;BME280;8419;52.358;9.752;2023-03-16T08:39:16;101356.00;;;15.53;30.45
16613;BME280;8419;52.358;9.752;2023-03-16T08:42:02;101359.00;;;15.62;30.15
16613;BME280;8419;52.358;9.752;2023-03-16T08:44:48;101364.00;;;15.89;29.96
16613;BME280;8419;52.358;9.752;2023-03-16T08:47:33;101359.00;;;16.00;29.79
16613;BME280;8419;52.358;9.752;2023-03-16T08:50:19;101368.00;;;16.12;29.50
16613;BME280;8419;52.358;9.752;2023-03-16T08:53:04;101359.00;;;16.08;29.54
16613;BME280;8419;52.358;9.752;2023-03-16T08:55:49;101351.00;;;15.97;29.57
16613;BME280;8419;52.358;9.752;2023-03-16T08:58:36;101359.00;;;15.94;29.30
16613;BME280;8419;52.358;9.752;2023-03-16T09:01:22;101346.00;;;15.94;29.21
16613;BME280;8419;52.358;9.752;2023-03-16T09:04:09;101351.00;;;15.94;29.06
16613;BME280;8419;52.358;9.752;2023-03-16T09:06:57;101348.00;;;15.95;29.06
16613;BME280;8419;52.358;9.752;2023-03-16T09:09:42;101344.00;;;16.00;29.02
16613;BME280;8419;52.358;9.752;2023-03-16T09:12:28;101337.00;;;16.06;28.99
16613;BME280;8419;52.358;9.752;2023-03-16T09:15:16;101342.00;;;16.09;28.89
16613;BME280;8419;52.358;9.752;2023-03-16T09:18:01;101342.00;;;16.17;28.71
16613;BME280;8419;52.358;9.752;2023-03-16T09:20:47;101338.00;;;16.24;28.36
16613;BME280;8419;52.358;9.752;2023-03-16T09:23:34;101341.00;;;16.35;28.29
16613;BME280;8419;52.358;9.752;2023-03-16T09:26:21;101336.00;;;16.48;28.07
16613;BME280;8419;52.358;9.752;2023-03-16T09:29:06;101333.00;;;16.55;27.78
16613;BME280;8419;52.358;9.752;2023-03-16T09:31:52;101330.00;;;16.70;27.58
16613;BME280;8419;52.358;9.752;2023-03-16T09:34:37;101339.00;;;16.83;27.33
16613;BME280;8419;52.358;9.752;2023-03-16T09:37:22;101331.00;;;16.98;27.25
16613;BME280;8419;52.358;9.752;2023-03-16T09:40:18;101323.00;;;17.07;27.12
16613;BME280;8419;52.358;9.752;2023-03-16T09:43:19;101326.00;;;17.15;26.96
16613;BME280;8419;52.358;9.752;2023-03-16T09:46:12;101303.00;;;17.20;26.67
16613;BME280;8419;52.358;9.752;2023-03-16T09:49:03;101318.00;;;17.27;26.40
16613;BME280;8419;52.358;9.752;2023-03-16T09:51:52;101314.00;;;17.43;26.09
16613;BME280;8419;52.358;9.752;2023-03-16T09:54:46;101313.00;;;17.54;25.92
16613;BME280;8419;52.358;9.752;2023-03-16T09:57:36;101313.00;;;17.64;25.95
16613;BME280;8419;52.358;9.752;2023-03-16T10:00:27;101312.00;;;17.70;25.90
16613;BME280;8419;52.358;9.752;2023-03-16T10:03:27;101312.00;;;17.70;25.90
16613;BME280;8419;52.358;9.752;2023-03-16T10:06:15;101313.00;;;17.69;25.75
16613;BME280;8419;52.358;9.752;2023-03-16T10:09:10;101318.00;;;17.73;25.75
16613;BME280;8419;52.358;9.752;2023-03-16T10:12:01;101320.00;;;17.70;25.49
16613;BME280;8419;52.358;9.752;2023-03-16T10:14:52;101322.00;;;17.69;25.48
16613;BME280;8419;52.358;9.752;2023-03-16T10:17:48;101325.00;;;17.74;25.47
16613;BME280;8419;52.358;9.752;2023-03-16T10:20:35;101331.00;;;17.79;25.22
16613;BME280;8419;52.358;9.752;2023-03-16T10:23:22;101318.00;;;17.79;24.90
16613;BME280;8419;52.358;9.752;2023-03-16T10:26:12;101317.00;;;17.89;24.67
16613;BME280;8419;52.358;9.752;2023-03-16T10:28:59;101312.00;;;18.01;24.55
16613;BME280;8419;52.358;9.752;2023-03-16T10:31:45;101307.00;;;18.11;24.31
16613;BME280;8419;52.358;9.752;2023-03-16T10:34:31;101304.00;;;18.09;24.24
16613;BME280;8419;52.358;9.752;2023-03-16T10:37:16;101307.00;;;18.13;24.13
16613;BME280;8419;52.358;9.752;2023-03-16T10:40:09;101301.00;;;18.17;23.90
16613;BME280;8419;52.358;9.752;2023-03-16T10:42:56;101309.00;;;18.23;23.69
16613;BME280;8419;52.358;9.752;2023-03-16T10:45:42;101300.00;;;18.40;23.60
16613;BME280;8419;52.358;9.752;2023-03-16T10:48:31;101296.00;;;18.52;23.45
16613;BME280;8419;52.358;9.752;2023-03-16T10:51:21;101291.00;;;18.64;23.39
16613;BME280;8419;52.358;9.752;2023-03-16T10:54:15;101296.00;;;18.68;23.47
16613;BME280;8419;52.358;9.752;2023-03-16T10:57:11;101281.00;;;18.70;23.37
16613;BME280;8419;52.358;9.752;2023-03-16T11:00:04;101282.00;;;18.65;23.36
16613;BME280;8419;52.358;9.752;2023-03-16T11:02:59;101281.00;;;18.57;23.41
16613;BME280;8419;52.358;9.752;2023-03-16T11:05:46;101280.00;;;18.62;23.19
16613;BME280;8419;52.358;9.752;2023-03-16T11:08:35;101279.00;;;18.58;23.29
16613;BME280;8419;52.358;9.752;2023-03-16T11:11:28;101275.00;;;18.58;23.18
16613;BME280;8419;52.358;9.752;2023-03-16T11:14:17;101271.00;;;18.66;23.31
16613;BME280;8419;52.358;9.752;2023-03-16T11:17:09;101270.00;;;18.75;23.16
16613;BME280;8419;52.358;9.752;2023-03-16T11:19:59;101271.00;;;18.88;23.03
16613;BME280;8419;52.358;9.752;2023-03-16T11:22:56;101270.00;;;19.05;22.96
16613;BME280;8419;52.358;9.752;2023-03-16T11:25:46;101274.00;;;19.14;22.53
16613;BME280;8419;52.358;9.752;2023-03-16T11:28:38;101269.00;;;19.20;22.24
16613;BME280;8419;52.358;9.752;2023-03-16T11:31:36;101266.00;;;19.30;22.02
16613;BME280;8419;52.358;9.752;2023-03-16T11:34:28;101268.00;;;19.50;21.99
16613;BME280;8419;52.358;9.752;2023-03-16T11:37:24;101255.00;;;19.75;21.95
16613;BME280;8419;52.358;9.752;2023-03-16T11:40:28;101263.00;;;19.69;22.10
16613;BME280;8419;52.358;9.752;2023-03-16T11:43:29;101249.00;;;19.93;21.87
16613;BME280;8419;52.358;9.752;2023-03-16T11:46:21;101245.00;;;20.26;21.43
16613;BME280;8419;52.358;9.752;2023-03-16T11:49:21;101232.00;;;20.37;21.23
16613;BME280;8419;52.358;9.752;2023-03-16T11:52:23;101223.00;;;20.38;21.21
16613;BME280;8419;52.358;9.752;2023-03-16T11:55:22;101227.00;;;20.50;21.14
16613;BME280;8419;52.358;9.752;2023-03-16T11:58:26;101223.00;;;20.44;21.07
16613;BME280;8419;52.358;9.752;2023-03-16T12:01:16;101208.00;;;20.46;21.15
16613;BME280;8419;52.358;9.752;2023-03-16T12:04:22;101210.00;;;20.36;21.06
16613;BME280;8419;52.358;9.752;2023-03-16T12:07:22;101212.00;;;20.53;21.15
16613;BME280;8419;52.358;9.752;2023-03-16T12:10:22;101196.00;;;20.79;20.81
16613;BME280;8419;52.358;9.752;2023-03-16T12:13:27;101181.00;;;20.86;20.79
16613;BME280;8419;52.358;9.752;2023-03-16T12:16:20;101203.00;;;21.18;20.83
16613;BME280;8419;52.358;9.752;2023-03-16T12:19:11;101189.00;;;21.61;20.60
16613;BME280;8419;52.358;9.752;2023-03-16T12:22:05;101191.00;;;22.15;20.31
16613;BME280;8419;52.358;9.752;2023-03-16T12:24:52;101176.00;;;22.47;19.98
16613;BME280;8419;52.358;9.752;2023-03-16T12:27:40;101153.00;;;22.71;19.53
16613;BME280;8419;52.358;9.752;2023-03-16T12:30:37;101164.00;;;22.40;19.44
16613;BME280;8419;52.358;9.752;2023-03-16T12:33:46;101168.00;;;22.48;19.62
16613;BME280;8419;52.358;9.752;2023-03-16T12:37:07;101165.00;;;22.56;19.64
16613;BME280;8419;52.358;9.752;2023-03-16T12:40:03;101152.00;;;23.51;19.13
16613;BME280;8419;52.358;9.752;2023-03-16T12:43:03;101148.00;;;23.78;18.67
16613;BME280;8419;52.358;9.752;2023-03-16T12:45:57;101150.00;;;23.98;18.30
16613;BME280;8419;52.358;9.752;2023-03-16T12:48:46;101151.00;;;23.89;18.14
16613;BME280;8419;52.358;9.752;2023-03-16T12:51:37;101148.00;;;23.66;17.86
16613;BME280;8419;52.358;9.752;2023-03-16T12:54:24;101154.00;;;23.89;18.13
16613;BME280;8419;52.358;9.752;2023-03-16T12:57:15;101132.00;;;24.23;18.28
16613;BME280;8419;52.358;9.752;2023-03-16T13:00:03;101127.00;;;24.29;18.47
16613;BME280;8419;52.358;9.752;2023-03-16T13:02:55;101115.00;;;24.05;18.71
16613;BME280;8419;52.358;9.752;2023-03-16T13:05:48;101115.00;;;24.22;18.78
16613;BME280;8419;52.358;9.752;2023-03-16T13:08:42;101128.00;;;24.01;18.59
16613;BME280;8419;52.358;9.752;2023-03-16T13:11:41;101113.00;;;23.53;18.34
16613;BME280;8419;52.358;9.752;2023-03-16T13:14:44;101114.00;;;23.33;18.35
16613;BME280;8419;52.358;9.752;2023-03-16T13:17:32;101112.00;;;22.85;18.39
16613;BME280;8419;52.358;9.752;2023-03-16T13:20:26;101100.00;;;22.97;18.33
16613;BME280;8419;52.358;9.752;2023-03-16T13:23:23;101108.00;;;22.93;17.98
16613;BME280;8419;52.358;9.752;2023-03-16T13:26:15;101090.00;;;22.79;17.71
16613;BME280;8419;52.358;9.752;2023-03-16T13:29:09;101086.00;;;22.64;17.42
16613;BME280;8419;52.358;9.752;2023-03-16T13:32:14;101080.00;;;22.41;17.49
16613;BME280;8419;52.358;9.752;2023-03-16T13:35:07;101089.00;;;22.67;17.47
16613;BME280;8419;52.358;9.752;2023-03-16T13:38:00;101087.00;;;22.96;17.38
16613;BME280;8419;52.358;9.752;2023-03-16T13:40:49;101080.00;;;23.44;17.16
16613;BME280;8419;52.358;9.752;2023-03-16T13:43:40;101083.00;;;23.34;17.22
16613;BME280;8419;52.358;9.752;2023-03-16T13:46:29;101079.00;;;23.31;17.34
16613;BME280;8419;52.358;9.752;2023-03-16T13:49:16;101079.00;;;23.56;17.38
16613;BME280;8419;52.358;9.752;2023-03-16T13:52:03;101078.00;;;23.68;17.51
16613;BME280;8419;52.358;9.752;2023-03-16T13:54:50;101067.00;;;24.03;17.38
16613;BME280;8419;52.358;9.752;2023-03-16T13:57:39;101057.00;;;24.36;17.32
16613;BME280;8419;52.358;9.752;2023-03-16T14:00:30;101055.00;;;24.61;17.18
16613;BME280;8419;52.358;9.752;2023-03-16T14:03:18;101041.00;;;24.69;17.13
16613;BME280;8419;52.358;9.752;2023-03-16T14:06:06;101043.00;;;24.50;16.98
16613;BME280;8419;52.358;9.752;2023-03-16T14:09:12;101041.00;;;24.30;17.13
16613;BME280;8419;52.358;9.752;2023-03-16T14:12:03;101031.00;;;24.08;17.28
16613;BME280;8419;52.358;9.752;2023-03-16T14:14:54;101030.00;;;23.81;17.54
16613;BME280;8419;52.358;9.752;2023-03-16T14:17:42;101028.00;;;23.53;17.63
16613;BME280;8419;52.358;9.752;2023-03-16T14:20:27;101032.00;;;23.08;18.00
16613;BME280;8419;52.358;9.752;2023-03-16T14:23:18;101020.00;;;22.79;18.12
16613;BME280;8419;52.358;9.752;2023-03-16T14:26:10;101020.00;;;22.67;18.12
16613;BME280;8419;52.358;9.752;2023-03-16T14:29:01;101019.00;;;22.38;18.36
16613;BME280;8419;52.358;9.752;2023-03-16T14:31:49;101016.00;;;22.12;18.44
16613;BME280;8419;52.358;9.752;2023-03-16T14:34:36;101011.00;;;21.85;18.64
16613;BME280;8419;52.358;9.752;2023-03-16T14:37:35;101008.00;;;21.59;18.71
16613;BME280;8419;52.358;9.752;2023-03-16T14:40:28;101001.00;;;21.39;18.77
16613;BME280;8419;52.358;9.752;2023-03-16T14:43:17;100988.00;;;21.23;18.77
16613;BME280;8419;52.358;9.752;2023-03-16T14:46:04;100996.00;;;21.07;18.86
16613;BME280;8419;52.358;9.752;2023-03-16T14:48:51;100985.00;;;20.91;18.90
16613;BME280;8419;52.358;9.752;2023-03-16T14:51:44;100976.00;;;20.83;19.01
16613;BME280;8419;52.358;9.752;2023-03-16T14:54:30;100972.00;;;20.91;19.00
16613;BME280;8419;52.358;9.752;2023-03-16T14:57:17;100969.00;;;20.94;18.97